AirNav   Air Wisconsin Up To $57,000 Bonus
 
 1778 users online  

LL46 Read Airport
Piper City, Illinois, USA

GOING TO PIPER CITY?


FAA INFORMATION EFFECTIVE 02 JANUARY 2020

Location

FAA Identifier: LL46
Lat/Long: 40-50-07.1230N 088-09-10.1670W
40-50.118717N 088-09.169450W
40.8353119,-88.1528242
(estimated)
Elevation: 663 ft. / 202 m (estimated)
Variation: 00W (1985)
From city: 4 miles NE of PIPER CITY, IL
Time zone: UTC -6 (UTC -5 during Daylight Saving Time)
Zip code: 60959

Airport Operations

Airport use: Private use. Permission required prior to landing
Activation date: 10/1976
Control tower: no
ARTCC: CHICAGO CENTER
FSS: COLUMBIA FLIGHT SERVICE STATION
Attendance: UNATNDD
Wind indicator: yes
Segmented circle: no

Airport Communications

WX AWOS-3 at IKK (20 nm NE): 128.475 (815-939-4044)

Nearby radio navigation aids

VOR radial/distance  VOR name  Freq  Var
RBSr360/15.2ROBERTS VOR/DME116.8002E
IKKr224/19.8KANKAKEE VOR/DME111.6000E
PNTr085/26.4PONTIAC VOR/DME109.6003E
EONr210/30.8PEOTONE VORTAC113.2002E

Airport Services

Runway Information

Runway 9/27

Dimensions: 2110 x 90 ft. / 643 x 27 m
Surface: turf
RUNWAY 9  RUNWAY 27
Traffic pattern: leftleft
Obstructions: pline, 450 ft. from runwaynone

Airport Ownership and Management from official FAA records

Ownership: Privately-owned
Owner: ROBERT R. READ
2987 N 1700 E. RD
PIPER CITY, IL 60959
Phone 815-686-9006
Manager: ROBERT R. READ
2987 N 1700 E. RD
PIPER CITY, IL 60959
Phone 815-686-9006

Airport Operational Statistics

Aircraft based on the field: 2
Single engine airplanes: 2
    

Additional Remarks

FOR CD CTC CHICAGO ARTCC AT 630-906-8921.

Instrument Procedures

There are no published instrument procedures at LL46.

Some nearby airports with instrument procedures:

KIKK - Greater Kankakee Airport (20 nm NE)
KPNT - Pontiac Municipal Airport (22 nm W)
1C1 - Paxton Airport (23 nm S)
KTIP - Rantoul National Aviation Center Airport-Frank Elliott Field (33 nm S)
50I - Kentland Municipal Airport (33 nm E)
 
Loc | Ops | Rwys | IFR | FBO | Links
Com | Nav | Svcs | Stats | Notes
Area around LL46 (Read Airport)
 
Road maps at: MapQuest Bing Google
 
Aerial photo
No photo
 
Sectional chart

 
Airport distance calculator
Flying to Read Airport? Find the distance to fly.

From to LL46

Sunrise and sunset
Times for 23-Jan-2020
 Local
(UTC-6)
 Zulu
(UTC)
Morning civil twilight06:4212:42
Sunrise07:1213:12
Sunset16:5822:58
Evening civil twilight17:2723:27

Current date and time
Zulu (UTC)  23-Jan-2020 20:45:02
Local (UTC-6)  23-Jan-2020 14:45:02
 
METAR
KIKK 
20nm NE 
232035Z AUTO 16006KT 10SM -RA BKN007 OVC011 01/00 A3004 RMK AO2 T00100000
KPNT 
22nm W 
232035Z AUTO 03008KT 5SM -RA OVC006 01/00 A3000 RMK AO2 T00070002
KTIP 
32nm S 
232035Z AUTO 13005KT 10SM OVC027 01/00 A3000 RMK AO2 T00120000
KC09 
38nm N 
232035Z AUTO 16008KT 3SM UP OVC005 01/01 A3001 RMK AO2 T00070005
TAF
KBMI 
41nm SW 
231742Z 2318/2418 17011KT 3SM -SN BR OVC004 FM240000 13008KT 1SM -SN BR OVC003 FM240800 08008KT 3/4SM -SNRA BR OVC003 FM241500 08006KT 1 1/2SM BR BKN003
KCMI 
48nm S 
231742Z 2318/2418 17009KT 2SM BR VCSH SCT008 OVC013 FM240000 14008KT 2SM -SNRA BR OVC008 FM241500 09006KT 3/4SM -SNRA BR OVC002
NOTAMs
Click for the latest NOTAMs
NOTAMs are issued by the DoD/FAA and will open in a separate window not controlled by AirNav.

 

 
 

Would you like to see your business listed on this page?

 If your business provides an interesting product or service to pilots, flight crews, aircraft, or users of the Read Airport, you should consider listing it here.  To start the listing process, click on the button below
 
Add a business
 

Other Pages about Read Airport

Update a link
 
Copyright © AirNav, LLC. All rights reserved. Privacy Policy  Contact